Time;durP1;ratioP1;P1;durP2;ratioP2;P2;SDS_P1;SDS_P2;PMS_P1;PMS_P2;Temp;Humidity;BMP_temperature;BMP_pressure;BME280_temperature;BME280_humidity;BME280_pressure;Samples;Min_cycle;Max_cycle;Signal;HPM_P1;HPM_P2
2021/12/04 00:01:06;;;;;;;2.60;2.40;;;4.40;99.90;;;;;;4957349;29;20444;-70
2021/12/04 00:03:34;;;;;;;2.20;2.10;;;4.40;99.90;;;;;;4956024;29;20495;-69
2021/12/04 00:06:06;;;;;;;2.33;2.23;;;4.50;99.90;;;;;;4956157;28;20464;-70
2021/12/04 00:08:35;;;;;;;2.70;2.50;;;4.50;99.90;;;;;;4963584;29;20491;-70
2021/12/04 00:11:02;;;;;;;2.80;2.43;;;4.50;99.90;;;;;;4956475;28;20455;-69
2021/12/04 00:13:28;;;;;;;2.23;2.13;;;4.60;99.90;;;;;;4956340;29;20979;-70
2021/12/04 00:15:55;;;;;;;3.00;2.30;;;4.70;99.90;;;;;;4956186;29;20451;-72
2021/12/04 00:18:22;;;;;;;2.20;2.10;;;4.70;99.90;;;;;;4955858;29;20947;-71
2021/12/04 00:20:50;;;;;;;2.50;2.40;;;4.60;99.90;;;;;;4957035;29;20462;-71
2021/12/04 00:23:17;;;;;;;2.73;2.50;;;4.70;99.90;;;;;;4956133;29;20503;-71
2021/12/04 00:25:44;;;;;;;2.07;1.97;;;4.70;99.90;;;;;;4956268;29;20464;-71
2021/12/04 00:28:10;;;;;;;3.00;2.67;;;4.70;99.90;;;;;;4955842;29;20476;-71
2021/12/04 00:30:37;;;;;;;2.33;2.20;;;4.70;99.90;;;;;;4955607;29;21055;-71
2021/12/04 00:33:09;;;;;;;2.60;2.40;;;4.80;99.90;;;;;;4955605;29;20987;-71
2021/12/04 00:35:43;;;;;;;2.30;2.20;;;4.80;99.90;;;;;;4958190;29;20451;-70
2021/12/04 00:49:22;;;;;;;4.00;3.70;;;4.70;99.90;;;;;;4955759;29;20466;-70
2021/12/04 00:51:53;;;;;;;3.90;3.50;;;4.80;99.90;;;;;;4955408;29;20970;-70
2021/12/04 00:54:23;;;;;;;3.63;3.33;;;4.80;99.90;;;;;;4955930;29;20447;-69
2021/12/04 00:56:50;;;;;;;3.73;3.40;;;4.70;99.90;;;;;;4955515;29;20823;-70
2021/12/04 00:59:17;;;;;;;3.67;3.37;;;4.70;99.90;;;;;;4955729;29;20459;-69
2021/12/04 01:01:44;;;;;;;3.23;3.03;;;4.80;99.90;;;;;;4955817;29;20864;-69
2021/12/04 01:04:12;;;;;;;4.23;3.90;;;4.80;99.90;;;;;;4955241;29;20494;-70
2021/12/04 01:06:39;;;;;;;3.47;3.10;;;4.80;99.90;;;;;;4955914;29;20455;-69
2021/12/04 01:09:08;;;;;;;3.90;3.60;;;4.70;99.90;;;;;;4955470;29;20491;-69
2021/12/04 01:11:37;;;;;;;4.27;3.87;;;4.70;99.90;;;;;;4955883;29;20939;-69
2021/12/04 01:14:05;;;;;;;4.07;3.63;;;4.60;99.90;;;;;;4955745;29;20472;-69
2021/12/04 01:16:31;;;;;;;5.53;4.00;;;4.60;99.90;;;;;;4955654;29;20467;-70
2021/12/04 01:18:59;;;;;;;3.80;3.50;;;4.50;99.90;;;;;;4957169;28;20463;-69
2021/12/04 01:21:25;;;;;;;4.43;4.03;;;4.50;99.90;;;;;;4958984;29;20462;-69
2021/12/04 01:23:52;;;;;;;3.70;3.40;;;4.50;99.90;;;;;;4959007;29;20877;-69
2021/12/04 01:26:20;;;;;;;4.50;4.03;;;4.40;99.90;;;;;;4958686;29;20974;-69
2021/12/04 01:28:48;;;;;;;5.23;4.00;;;4.40;99.90;;;;;;4958537;29;20483;-70
2021/12/04 01:31:15;;;;;;;4.13;3.83;;;4.40;99.90;;;;;;4958643;29;20498;-70
2021/12/04 01:33:42;;;;;;;4.53;3.73;;;4.30;99.90;;;;;;4958313;29;20872;-69
2021/12/04 01:36:09;;;;;;;5.70;3.67;;;4.30;99.90;;;;;;4958251;29;20952;-69
2021/12/04 01:38:36;;;;;;;5.10;3.93;;;4.30;99.90;;;;;;4958995;28;20456;-69
2021/12/04 01:41:03;;;;;;;7.60;4.30;;;4.20;99.90;;;;;;4958350;29;20962;-70
2021/12/04 01:43:30;;;;;;;6.90;4.27;;;4.20;99.90;;;;;;4958661;29;20479;-70
2021/12/04 01:45:58;;;;;;;5.90;3.97;;;4.20;99.90;;;;;;4958670;29;20463;-71
2021/12/04 01:48:25;;;;;;;4.57;4.07;;;4.20;99.90;;;;;;4958732;29;20486;-70
2021/12/04 01:50:54;;;;;;;5.60;5.10;;;4.20;99.90;;;;;;4958713;29;20456;-69
2021/12/04 01:53:21;;;;;;;4.60;4.20;;;4.10;99.90;;;;;;4958542;29;20542;-68
2021/12/04 01:55:52;;;;;;;5.07;4.57;;;4.00;99.90;;;;;;4958432;29;20456;-70
2021/12/04 01:58:19;;;;;;;5.10;4.70;;;3.90;99.90;;;;;;4958154;29;20499;-70
2021/12/04 02:00:46;;;;;;;6.53;5.63;;;3.90;99.90;;;;;;4958655;29;20488;-69
2021/12/04 02:03:16;;;;;;;5.63;5.23;;;3.80;99.90;;;;;;4957953;29;20484;-69
2021/12/04 02:05:44;;;;;;;8.03;5.00;;;3.60;99.90;;;;;;4958660;29;20460;-70
2021/12/04 02:08:14;;;;;;;8.63;5.67;;;3.40;99.90;;;;;;4960490;29;20484;-72
2021/12/04 02:10:42;;;;;;;6.83;6.17;;;3.40;99.90;;;;;;4957898;29;20460;-70
2021/12/04 02:13:09;;;;;;;5.73;5.27;;;3.30;99.90;;;;;;4957721;29;20480;-70
2021/12/04 02:15:36;;;;;;;7.00;6.30;;;3.20;99.90;;;;;;4957893;29;20463;-70
2021/12/04 02:18:05;;;;;;;6.40;5.83;;;3.20;99.90;;;;;;4958240;29;20456;-70
2021/12/04 02:20:34;;;;;;;8.87;6.97;;;3.10;99.90;;;;;;4957710;29;20523;-70
2021/12/04 02:23:02;;;;;;;6.60;6.00;;;3.10;99.90;;;;;;4957598;29;20502;-71
2021/12/04 02:25:29;;;;;;;6.33;5.40;;;3.20;99.90;;;;;;4957474;29;20459;-71
2021/12/04 02:27:56;;;;;;;6.73;5.97;;;3.20;99.90;;;;;;4957493;29;20464;-71
2021/12/04 02:30:25;;;;;;;5.53;5.03;;;3.20;99.90;;;;;;4956287;28;20460;-71
2021/12/04 02:32:53;;;;;;;10.37;5.30;;;3.20;99.90;;;;;;4957144;29;20482;-71
2021/12/04 02:35:20;;;;;;;9.27;7.10;;;3.30;99.90;;;;;;4957693;29;20470;-71
2021/12/04 02:37:48;;;;;;;7.60;6.57;;;3.30;99.90;;;;;;4957465;29;20452;-71
2021/12/04 02:40:20;;;;;;;9.17;6.00;;;3.40;99.90;;;;;;4957358;29;20830;-71
2021/12/04 02:42:46;;;;;;;11.03;6.40;;;3.40;99.90;;;;;;4957273;29;20476;-71
2021/12/04 02:45:14;;;;;;;6.87;6.27;;;3.40;99.90;;;;;;4957451;29;20463;-71
2021/12/04 02:47:41;;;;;;;10.20;6.20;;;3.40;99.90;;;;;;4957163;29;20459;-71
2021/12/04 02:50:10;;;;;;;6.43;5.90;;;3.40;99.90;;;;;;4956839;29;20487;-71
2021/12/04 02:52:39;;;;;;;6.50;5.87;;;3.40;99.90;;;;;;4957235;29;20472;-71
2021/12/04 02:55:08;;;;;;;6.53;5.83;;;3.40;99.90;;;;;;4957036;29;20460;-71
2021/12/04 02:57:39;;;;;;;7.77;5.93;;;3.40;99.90;;;;;;4957216;29;20467;-70
2021/12/04 03:00:06;;;;;;;10.73;5.97;;;3.30;99.90;;;;;;4957001;29;20440;-70
2021/12/04 03:02:33;;;;;;;6.53;5.93;;;3.30;99.90;;;;;;4956880;29;21020;-71
2021/12/04 03:05:06;;;;;;;7.00;6.40;;;3.20;99.90;;;;;;4956925;29;20460;-70
2021/12/04 03:07:33;;;;;;;8.77;6.57;;;3.20;99.90;;;;;;4957733;29;20549;-70
2021/12/04 03:10:00;;;;;;;7.90;7.10;;;3.10;99.90;;;;;;4958016;29;20484;-70
2021/12/04 03:12:28;;;;;;;9.80;8.27;;;3.10;99.90;;;;;;4957879;29;20575;-71
2021/12/04 03:14:55;;;;;;;9.70;8.70;;;3.00;99.90;;;;;;4956906;29;20467;-70
2021/12/04 03:17:23;;;;;;;9.47;8.53;;;3.00;99.90;;;;;;4956892;29;20507;-71
2021/12/04 03:19:51;;;;;;;12.70;9.93;;;3.00;99.90;;;;;;4956549;29;20460;-70
2021/12/04 03:22:19;;;;;;;12.00;9.93;;;3.00;99.90;;;;;;4956639;29;20874;-71
2021/12/04 03:24:46;;;;;;;13.73;10.27;;;2.90;99.90;;;;;;4956501;29;20520;-70
2021/12/04 03:27:15;;;;;;;12.37;10.60;;;2.90;99.90;;;;;;4956928;28;20452;-72
2021/12/04 03:29:48;;;;;;;12.00;10.70;;;2.90;99.90;;;;;;4956560;28;20859;-71
2021/12/04 03:43:09;;;;;;;17.90;11.27;;;2.70;99.90;;;;;;4943474;28;20970;-71
2021/12/04 03:45:40;;;;;;;14.17;11.37;;;2.70;99.90;;;;;;4956484;28;20462;-71
2021/12/04 03:48:09;;;;;;;14.83;12.67;;;2.70;99.90;;;;;;4956428;28;20516;-71
2021/12/04 03:50:37;;;;;;;13.73;12.27;;;2.70;99.90;;;;;;4956335;28;20571;-71
2021/12/04 03:53:04;;;;;;;14.40;11.83;;;2.70;99.90;;;;;;4956345;28;20484;-72
2021/12/04 03:55:31;;;;;;;20.40;12.47;;;2.80;99.90;;;;;;4956275;28;21036;-71
2021/12/04 03:57:58;;;;;;;16.30;12.13;;;2.70;99.90;;;;;;4956201;28;20456;-71
2021/12/04 04:00:28;;;;;;;16.03;13.23;;;2.80;99.90;;;;;;4956437;28;20479;-72
2021/12/04 04:02:57;;;;;;;15.50;13.13;;;2.80;99.90;;;;;;4956063;28;20531;-70
2021/12/04 04:05:24;;;;;;;16.47;13.73;;;2.90;99.90;;;;;;4956229;28;20460;-70
2021/12/04 04:07:50;;;;;;;14.93;12.70;;;3.00;99.90;;;;;;4955733;28;20966;-71
2021/12/04 04:10:17;;;;;;;14.90;12.50;;;3.00;99.90;;;;;;4955942;28;20507;-70
2021/12/04 04:12:44;;;;;;;15.40;12.00;;;3.00;99.90;;;;;;4955878;28;20480;-71
2021/12/04 04:15:11;;;;;;;18.63;12.73;;;3.00;99.90;;;;;;4956534;28;20460;-71
2021/12/04 04:17:42;;;;;;;16.40;12.87;;;3.10;99.90;;;;;;4956117;28;20456;-71
2021/12/04 04:20:12;;;;;;;14.10;12.60;;;3.10;99.90;;;;;;4955983;28;20485;-72
2021/12/04 04:22:39;;;;;;;14.60;12.33;;;3.10;99.90;;;;;;4955505;28;20507;-72
2021/12/04 04:25:07;;;;;;;14.00;12.40;;;3.10;99.90;;;;;;4956010;28;20831;-71
2021/12/04 04:27:34;;;;;;;14.47;11.90;;;3.20;99.90;;;;;;4955936;28;20459;-71
2021/12/04 04:30:01;;;;;;;14.60;11.70;;;3.20;99.90;;;;;;4955753;28;20487;-70
2021/12/04 04:32:28;;;;;;;15.00;12.30;;;3.20;99.90;;;;;;4955335;28;20987;-70
2021/12/04 04:34:57;;;;;;;15.53;12.67;;;3.10;99.90;;;;;;4955817;28;20456;-70
2021/12/04 04:37:32;;;;;;;14.80;11.40;;;3.10;99.90;;;;;;4956043;28;20535;-72
2021/12/04 04:40:30;;;;;;;14.07;11.47;;;3.10;99.90;;;;;;4955732;28;20519;-71
2021/12/04 04:59:35;;;;;;;15.07;10.97;;;3.40;99.90;;;;;;4959292;29;20498;-71
2021/12/04 05:02:22;;;;;;;13.27;10.87;;;3.50;99.90;;;;;;4959031;28;20903;-71
2021/12/04 05:10:50;;;;;;;12.23;10.20;;;3.60;99.90;;;;;;4963649;29;20602;-70
2021/12/04 05:13:18;;;;;;;14.73;10.53;;;3.60;99.90;;;;;;4959274;28;20479;-71
2021/12/04 05:15:56;;;;;;;13.60;10.73;;;3.70;99.90;;;;;;4958946;28;20455;-70
2021/12/04 05:18:32;;;;;;;10.07;8.77;;;3.70;99.90;;;;;;4959063;28;20448;-71
2021/12/04 05:21:06;;;;;;;12.37;9.70;;;3.70;99.90;;;;;;4959254;29;20440;-71
2021/12/04 05:23:34;;;;;;;11.00;8.73;;;3.70;99.90;;;;;;4958888;29;20487;-72
2021/12/04 05:26:03;;;;;;;14.27;9.63;;;3.70;99.90;;;;;;4958679;29;20455;-72
2021/12/04 05:28:30;;;;;;;12.30;10.20;;;3.70;99.90;;;;;;4958863;29;20467;-70
2021/12/04 05:30:58;;;;;;;13.07;9.00;;;3.70;99.90;;;;;;4959463;28;20479;-71
2021/12/04 05:33:25;;;;;;;12.70;9.07;;;3.70;99.90;;;;;;4958393;29;20483;-70
2021/12/04 05:35:52;;;;;;;11.93;9.87;;;3.70;99.90;;;;;;4958614;29;20456;-71
2021/12/04 05:38:20;;;;;;;9.47;8.47;;;3.70;99.90;;;;;;4958789;29;20462;-71
2021/12/04 05:40:48;;;;;;;11.83;8.93;;;3.70;99.90;;;;;;4959157;29;20456;-71
2021/12/04 05:43:18;;;;;;;12.00;9.63;;;3.70;99.90;;;;;;4958371;29;20480;-71
2021/12/04 05:45:51;;;;;;;12.13;9.30;;;3.70;99.90;;;;;;4959350;29;20448;-70
2021/12/04 05:48:23;;;;;;;13.07;9.07;;;3.70;99.90;;;;;;4958274;29;20445;-70
2021/12/04 05:51:13;;;;;;;15.10;9.87;;;3.70;99.90;;;;;;4958457;29;20476;-72
2021/12/04 05:53:57;;;;;;;12.03;8.97;;;3.70;99.90;;;;;;4958528;29;20476;-70
2021/12/04 05:56:23;;;;;;;12.20;9.10;;;3.70;99.90;;;;;;4959370;28;20916;-71
2021/12/04 05:58:52;;;;;;;10.50;9.40;;;3.70;99.90;;;;;;4958646;29;20480;-71
2021/12/04 06:01:20;;;;;;;11.30;9.67;;;3.80;99.90;;;;;;4958230;29;20460;-71
2021/12/04 06:03:47;;;;;;;10.93;9.33;;;3.80;99.90;;;;;;4958663;29;20491;-71
2021/12/04 06:06:14;;;;;;;12.10;8.60;;;3.80;99.90;;;;;;4957813;28;20455;-71
2021/12/04 06:08:41;;;;;;;11.80;8.80;;;3.80;99.90;;;;;;4958444;29;20456;-69
2021/12/04 06:11:08;;;;;;;13.53;9.80;;;3.90;99.90;;;;;;4958294;28;20491;-71
2021/12/04 06:13:35;;;;;;;9.70;8.17;;;3.90;99.90;;;;;;4958231;29;20480;-70
2021/12/04 06:16:03;;;;;;;9.40;7.97;;;4.00;99.90;;;;;;4958473;29;20461;-70
2021/12/04 06:18:31;;;;;;;10.67;8.23;;;4.10;99.90;;;;;;4957736;29;20460;-70
2021/12/04 06:23:43;;;;;;;11.83;10.30;;;4.20;99.90;;;;;;4958091;29;20463;-71
2021/12/04 06:26:10;;;;;;;10.97;9.33;;;4.20;99.90;;;;;;4957948;28;20455;-71
2021/12/04 06:28:37;;;;;;;10.60;8.20;;;4.20;99.90;;;;;;4957796;29;20825;-71
2021/12/04 06:31:07;;;;;;;10.57;9.03;;;4.20;99.90;;;;;;4957991;29;20502;-70
2021/12/04 06:33:34;;;;;;;10.10;8.20;;;4.30;99.90;;;;;;4957820;29;20531;-71
2021/12/04 06:36:01;;;;;;;14.53;10.07;;;4.30;99.90;;;;;;4958443;28;20905;-70
2021/12/04 06:38:28;;;;;;;11.17;8.80;;;4.30;99.90;;;;;;4958907;28;20464;-70
2021/12/04 06:40:56;;;;;;;10.43;9.00;;;4.40;99.90;;;;;;4957827;28;20463;-71
2021/12/04 06:43:25;;;;;;;11.80;8.93;;;4.40;99.90;;;;;;4960421;29;20479;-71
2021/12/04 06:45:57;;;;;;;13.63;9.50;;;4.40;99.90;;;;;;4957874;29;20547;-72
2021/12/04 06:48:31;;;;;;;11.90;9.87;;;4.40;99.90;;;;;;4973893;29;20460;-72
2021/12/04 06:51:01;;;;;;;11.07;8.47;;;4.40;99.90;;;;;;4963094;29;20520;-72
2021/12/04 06:53:31;;;;;;;12.10;9.83;;;4.40;99.90;;;;;;4957894;29;20499;-72
2021/12/04 06:56:02;;;;;;;10.33;8.37;;;4.40;99.90;;;;;;4957681;29;20440;-72
2021/12/04 06:58:29;;;;;;;11.87;8.53;;;4.30;99.90;;;;;;4957274;29;20488;-71
2021/12/04 07:00:56;;;;;;;11.27;7.90;;;4.40;99.90;;;;;;4957363;29;20547;-71
2021/12/04 07:03:24;;;;;;;10.03;8.07;;;4.40;99.90;;;;;;4956902;29;20484;-71
2021/12/04 07:05:51;;;;;;;11.07;8.53;;;4.50;99.90;;;;;;4956968;29;20448;-72
2021/12/04 07:08:18;;;;;;;12.93;9.53;;;4.50;99.90;;;;;;4958124;29;20468;-71
2021/12/04 07:10:45;;;;;;;9.20;7.90;;;4.50;99.90;;;;;;4957242;29;20487;-71
2021/12/04 07:13:13;;;;;;;10.20;8.80;;;4.50;99.90;;;;;;4957324;29;20483;-71
2021/12/04 07:15:41;;;;;;;13.03;8.60;;;4.50;99.90;;;;;;4957500;28;20456;-71
2021/12/04 07:18:08;;;;;;;10.63;8.87;;;4.60;99.90;;;;;;4957245;29;20455;-70
2021/12/04 07:20:36;;;;;;;11.23;9.20;;;4.60;99.90;;;;;;4957720;29;20452;-70
2021/12/04 07:23:03;;;;;;;14.97;9.00;;;4.60;99.90;;;;;;4957336;29;20476;-70
2021/12/04 07:25:30;;;;;;;9.40;8.20;;;4.60;99.90;;;;;;4957454;29;20459;-70
2021/12/04 07:27:57;;;;;;;12.30;8.83;;;4.70;99.90;;;;;;4957664;29;20460;-71
2021/12/04 07:30:25;;;;;;;10.10;8.03;;;4.70;99.90;;;;;;4957299;29;20480;-70
2021/12/04 07:32:52;;;;;;;12.00;8.60;;;4.70;99.90;;;;;;4957480;29;20472;-71
2021/12/04 07:35:19;;;;;;;12.80;8.80;;;4.80;99.90;;;;;;4957139;29;20464;-70
2021/12/04 07:37:47;;;;;;;10.83;8.67;;;4.80;99.90;;;;;;4957173;29;20460;-71
2021/12/04 07:40:14;;;;;;;10.73;7.33;;;4.80;99.90;;;;;;4956385;29;20948;-71
2021/12/04 07:42:41;;;;;;;10.13;7.77;;;4.80;99.90;;;;;;4956541;29;20486;-71
2021/12/04 07:45:08;;;;;;;11.20;9.27;;;4.90;99.90;;;;;;4956419;29;20456;-72
2021/12/04 07:47:36;;;;;;;11.20;8.87;;;5.00;99.90;;;;;;4956439;29;20483;-71
2021/12/04 07:50:04;;;;;;;9.37;8.37;;;5.00;99.90;;;;;;4956054;29;21017;-71
2021/12/04 07:52:31;;;;;;;10.37;8.47;;;5.00;99.90;;;;;;4956405;28;20514;-72
2021/12/04 07:54:59;;;;;;;8.50;7.63;;;5.00;99.90;;;;;;4956498;29;20459;-71
2021/12/04 07:57:26;;;;;;;10.53;7.50;;;5.10;99.90;;;;;;4956074;29;20460;-71
2021/12/04 07:59:53;;;;;;;9.60;7.87;;;5.10;99.90;;;;;;4956481;28;20456;-70
2021/12/04 08:02:20;;;;;;;8.93;7.97;;;5.10;99.90;;;;;;4956248;29;20894;-71
2021/12/04 08:04:47;;;;;;;7.67;6.87;;;5.00;99.90;;;;;;4956542;29;20870;-71
2021/12/04 08:07:14;;;;;;;9.93;8.07;;;5.00;99.90;;;;;;4956404;29;20456;-71
2021/12/04 08:09:41;;;;;;;9.53;8.00;;;5.00;99.90;;;;;;4956362;29;20467;-71
2021/12/04 08:12:10;;;;;;;10.57;8.90;;;4.90;99.90;;;;;;4956270;29;20551;-71
2021/12/04 08:14:37;;;;;;;10.23;8.20;;;5.00;99.90;;;;;;4960162;29;20455;-71
2021/12/04 08:17:04;;;;;;;11.27;9.10;;;4.90;99.90;;;;;;4957243;29;20874;-70
2021/12/04 08:19:32;;;;;;;11.80;9.20;;;5.00;99.90;;;;;;4956599;29;20463;-71
2021/12/04 08:21:58;;;;;;;16.40;8.90;;;5.00;99.90;;;;;;4956258;29;20462;-70
2021/12/04 08:24:25;;;;;;;12.00;8.60;;;5.00;99.90;;;;;;4956635;29;20467;-71
2021/12/04 08:26:53;;;;;;;13.00;9.30;;;5.10;99.90;;;;;;4956378;29;20460;-71
2021/12/04 08:29:21;;;;;;;11.77;8.60;;;5.10;99.90;;;;;;4960266;28;20464;-71
2021/12/04 08:31:47;;;;;;;11.47;8.50;;;5.10;99.90;;;;;;4960363;29;20479;-71
2021/12/04 08:34:15;;;;;;;11.80;7.93;;;5.20;99.90;;;;;;4960437;29;20575;-71
2021/12/04 08:36:42;;;;;;;9.17;7.60;;;5.30;99.90;;;;;;4960854;29;20482;-71
2021/12/04 08:39:08;;;;;;;11.50;7.40;;;5.40;99.90;;;;;;4960006;29;20460;-71
2021/12/04 08:41:36;;;;;;;11.47;7.77;;;5.40;99.90;;;;;;4960393;29;20468;-70
2021/12/04 08:44:03;;;;;;;7.70;6.70;;;5.40;99.90;;;;;;4959948;29;20817;-71
2021/12/04 08:46:34;;;;;;;7.60;6.90;;;5.50;99.90;;;;;;4960005;28;20451;-71
2021/12/04 08:49:01;;;;;;;9.13;7.87;;;5.60;99.90;;;;;;4959867;29;20539;-70
2021/12/04 08:51:29;;;;;;;22.17;10.80;;;5.60;99.90;;;;;;4959490;29;20574;-71
2021/12/04 08:53:56;;;;;;;38.80;14.93;;;5.60;99.90;;;;;;4959330;28;20479;-71
2021/12/04 08:56:23;;;;;;;18.03;10.03;;;5.70;99.90;;;;;;4959110;28;20459;-71
2021/12/04 08:58:50;;;;;;;14.53;8.30;;;5.70;99.90;;;;;;4959588;28;20460;-71
2021/12/04 09:01:24;;;;;;;8.53;6.50;;;5.80;99.90;;;;;;4959351;29;20463;-71
2021/12/04 09:03:55;;;;;;;7.13;6.43;;;5.80;99.90;;;;;;4959015;28;20483;-71
2021/12/04 09:06:22;;;;;;;9.33;5.77;;;5.90;99.90;;;;;;4959268;29;20444;-71
2021/12/04 09:08:49;;;;;;;5.60;4.80;;;6.00;99.90;;;;;;4958884;29;20825;-70
2021/12/04 09:11:20;;;;;;;6.37;5.00;;;6.00;99.90;;;;;;4959103;29;20847;-71
2021/12/04 09:13:48;;;;;;;5.80;4.87;;;6.00;99.90;;;;;;4959160;29;20483;-72
2021/12/04 09:16:16;;;;;;;6.17;5.37;;;6.10;99.90;;;;;;4959004;29;20966;-72
2021/12/04 09:18:43;;;;;;;7.20;5.20;;;6.20;99.90;;;;;;4959007;29;20463;-72
2021/12/04 09:21:11;;;;;;;8.47;5.20;;;6.30;99.90;;;;;;4959239;29;20466;-72
2021/12/04 09:23:42;;;;;;;6.93;6.10;;;6.30;99.90;;;;;;4958853;29;21119;-72
2021/12/04 09:26:15;;;;;;;7.70;5.90;;;6.30;99.90;;;;;;4959313;29;20569;-72
2021/12/04 09:28:49;;;;;;;5.07;4.57;;;6.40;99.90;;;;;;4959188;29;20451;-72
2021/12/04 09:31:31;;;;;;;5.50;4.83;;;6.40;99.90;;;;;;4959015;29;20467;-72
2021/12/04 09:40:14;;;;;;;7.43;4.07;;;6.50;99.90;;;;;;4958538;28;20970;-72
2021/12/04 10:01:59;;;;;;;3.13;2.53;;;7.70;99.90;;;;;;4958646;29;20495;-72
2021/12/04 10:04:51;;;;;;;2.90;2.60;;;7.70;99.90;;;;;;4958856;28;20493;-71
2021/12/04 10:16:08;;;;;;;2.70;2.60;;;7.50;99.90;;;;;;4945007;28;20452;-72
2021/12/04 10:21:45;;;;;;;6.53;3.00;;;7.50;99.90;;;;;;4957958;29;20531;-72
2021/12/04 10:33:11;;;;;;;2.30;2.20;;;7.60;99.90;;;;;;4952387;29;20502;-73
2021/12/04 10:35:38;;;;;;;5.40;3.10;;;7.60;99.90;;;;;;4957999;29;20463;-72
2021/12/04 10:38:08;;;;;;;3.87;3.50;;;7.70;99.90;;;;;;4958564;29;20811;-73
2021/12/04 10:40:40;;;;;;;4.10;3.80;;;7.70;99.90;;;;;;4958068;29;20463;-73
2021/12/04 10:43:12;;;;;;;4.23;3.20;;;7.70;99.90;;;;;;4958301;29;20484;-72
2021/12/04 10:45:43;;;;;;;3.20;3.00;;;7.70;99.90;;;;;;4957467;29;20535;-73
2021/12/04 10:48:16;;;;;;;3.27;3.00;;;7.80;99.90;;;;;;4957574;29;20445;-73
2021/12/04 10:50:49;;;;;;;2.73;2.53;;;7.90;99.90;;;;;;4957436;28;20472;-72
2021/12/04 10:53:21;;;;;;;3.93;3.63;;;7.90;99.90;;;;;;4957159;29;20483;-72
2021/12/04 10:55:52;;;;;;;2.90;2.57;;;8.00;99.90;;;;;;4957810;29;20468;-72
2021/12/04 10:58:41;;;;;;;3.20;2.90;;;8.10;99.90;;;;;;4958187;29;20502;-72
2021/12/04 11:01:40;;;;;;;2.60;2.40;;;8.10;99.90;;;;;;4957469;29;20440;-72
2021/12/04 11:04:22;;;;;;;2.70;2.50;;;8.20;99.90;;;;;;4957024;29;20484;-73
2021/12/04 11:37:31;;;;;;;4.47;4.03;;;9.10;99.90;;;;;;4956965;29;20424;-73
2021/12/04 11:42:41;;;;;;;2.90;2.70;;;9.10;99.90;;;;;;4952980;29;20539;-73
2021/12/04 11:45:16;;;;;;;2.27;2.17;;;9.20;99.90;;;;;;4956452;29;20514;-73
2021/12/04 11:47:47;;;;;;;2.50;2.30;;;9.20;99.90;;;;;;4956576;29;20468;-73
2021/12/04 11:50:17;;;;;;;2.03;1.83;;;9.10;99.90;;;;;;4956520;29;20440;-73
2021/12/04 11:52:47;;;;;;;1.90;1.80;;;9.20;99.90;;;;;;4956243;29;20514;-73
2021/12/04 11:55:14;;;;;;;1.53;1.43;;;9.30;99.90;;;;;;4956379;29;20456;-73
2021/12/04 11:57:42;;;;;;;2.50;1.43;;;9.30;99.90;;;;;;4956601;29;20459;-73
2021/12/04 12:00:14;;;;;;;1.10;1.10;;;9.30;99.90;;;;;;4956279;29;20943;-73
2021/12/04 12:02:41;;;;;;;1.20;1.10;;;9.30;99.90;;;;;;4956283;28;20472;-73
2021/12/04 12:05:16;;;;;;;1.40;1.30;;;9.40;99.90;;;;;;4956627;29;20957;-73
2021/12/04 12:07:51;;;;;;;1.40;1.13;;;9.50;99.90;;;;;;4956524;29;20911;-73
2021/12/04 12:10:18;;;;;;;1.10;1.00;;;9.50;99.90;;;;;;4956463;29;20440;-74
2021/12/04 12:12:49;;;;;;;0.90;0.90;;;9.60;99.90;;;;;;4956078;29;20995;-74
2021/12/04 12:15:27;;;;;;;1.00;1.00;;;9.70;99.90;;;;;;4956540;29;20456;-74
2021/12/04 12:17:54;;;;;;;0.97;0.97;;;9.70;99.90;;;;;;4956523;29;20448;-74
2021/12/04 12:20:39;;;;;;;0.90;0.90;;;9.70;99.90;;;;;;4957334;29;20818;-74
2021/12/04 12:23:09;;;;;;;3.23;0.80;;;9.80;99.90;;;;;;4956400;29;20978;-73
2021/12/04 12:25:55;;;;;;;0.70;0.70;;;9.90;99.90;;;;;;4956777;29;20862;-74
2021/12/04 12:34:07;;;;;;;0.53;0.53;;;10.00;99.90;;;;;;4956062;29;20828;-73
2021/12/04 12:36:34;;;;;;;0.70;0.70;;;9.90;99.90;;;;;;4956485;29;20531;-72
2021/12/04 12:39:14;;;;;;;0.93;0.93;;;9.90;99.90;;;;;;4956220;29;20480;-72
2021/12/04 12:41:44;;;;;;;0.67;0.67;;;10.00;99.90;;;;;;4956464;29;20472;-73
2021/12/04 12:44:14;;;;;;;0.87;0.87;;;10.00;99.90;;;;;;4956366;29;20828;-72
2021/12/04 12:46:44;;;;;;;0.60;0.60;;;10.10;99.90;;;;;;4956354;29;20467;-73
2021/12/04 12:49:24;;;;;;;0.77;0.77;;;10.10;99.90;;;;;;4956172;29;20460;-72
2021/12/04 12:51:59;;;;;;;1.50;1.37;;;10.10;99.90;;;;;;4956365;29;20971;-73
2021/12/04 12:54:29;;;;;;;1.20;0.83;;;10.10;99.90;;;;;;4959014;29;20451;-72
2021/12/04 12:57:07;;;;;;;0.97;0.93;;;10.10;99.90;;;;;;4958252;29;20455;-72
2021/12/04 13:00:00;;;;;;;0.60;0.60;;;10.10;99.90;;;;;;4956445;28;20801;-73
2021/12/04 13:13:36;;;;;;;0.77;0.77;;;10.00;99.90;;;;;;4956038;28;20475;-72
2021/12/04 13:16:07;;;;;;;0.80;0.80;;;10.10;99.90;;;;;;4959468;29;20456;-72
2021/12/04 13:18:36;;;;;;;0.90;0.90;;;10.10;99.90;;;;;;4960349;29;20463;-72
2021/12/04 13:21:08;;;;;;;2.53;0.80;;;10.10;99.90;;;;;;4959984;29;20459;-72
2021/12/04 13:23:37;;;;;;;0.70;0.70;;;10.00;99.90;;;;;;4959560;28;20538;-72
2021/12/04 13:26:06;;;;;;;3.23;1.20;;;10.00;99.90;;;;;;4974800;29;20466;-72
2021/12/04 13:28:36;;;;;;;2.07;1.87;;;10.10;99.90;;;;;;4981990;29;20464;-72
2021/12/04 13:31:04;;;;;;;0.90;0.90;;;10.10;99.90;;;;;;4962034;29;20462;-71
2021/12/04 13:33:33;;;;;;;0.90;0.90;;;10.00;99.90;;;;;;4959825;29;20980;-71
2021/12/04 13:36:00;;;;;;;0.83;0.83;;;10.00;99.90;;;;;;4959429;29;20467;-72
2021/12/04 13:38:28;;;;;;;0.80;0.80;;;10.00;99.90;;;;;;4959640;29;20456;-71
2021/12/04 13:40:58;;;;;;;1.00;0.90;;;10.00;99.90;;;;;;4959592;29;20456;-73
2021/12/04 13:43:26;;;;;;;0.83;0.83;;;10.00;99.90;;;;;;4959347;29;20476;-72
2021/12/04 13:46:00;;;;;;;0.60;0.60;;;10.00;99.90;;;;;;4959403;29;20506;-72
2021/12/04 13:48:27;;;;;;;0.70;0.70;;;9.90;99.90;;;;;;4959530;29;20450;-73
2021/12/04 13:50:55;;;;;;;0.90;0.90;;;9.90;99.90;;;;;;4958920;29;20821;-72
2021/12/04 13:53:27;;;;;;;2.97;0.80;;;10.00;99.90;;;;;;4959008;29;20460;-72
2021/12/04 13:55:58;;;;;;;1.03;1.00;;;10.00;99.90;;;;;;4959163;29;20437;-72
2021/12/04 13:58:25;;;;;;;1.53;1.33;;;10.10;99.90;;;;;;4959375;29;20448;-72
2021/12/04 14:00:53;;;;;;;0.90;0.90;;;10.10;99.90;;;;;;4958568;29;20973;-72
2021/12/04 14:03:25;;;;;;;0.80;0.80;;;10.10;99.90;;;;;;4958706;29;20484;-72
2021/12/04 14:05:53;;;;;;;3.30;0.90;;;9.90;99.90;;;;;;4958712;29;20452;-73
2021/12/04 14:08:20;;;;;;;0.80;0.80;;;10.00;99.90;;;;;;4958860;29;20460;-72
2021/12/04 14:10:49;;;;;;;0.90;0.90;;;9.90;99.90;;;;;;4958843;29;20455;-73
2021/12/04 14:13:20;;;;;;;3.80;0.83;;;10.00;99.90;;;;;;4958791;29;20526;-73
2021/12/04 14:15:48;;;;;;;1.40;1.30;;;10.00;99.90;;;;;;4958832;29;20451;-73
2021/12/04 14:18:17;;;;;;;0.93;0.80;;;9.90;99.90;;;;;;4958412;29;20538;-73
2021/12/04 14:20:48;;;;;;;1.00;1.00;;;9.80;99.90;;;;;;4958980;29;20456;-73
2021/12/04 14:23:15;;;;;;;0.80;0.80;;;9.80;99.90;;;;;;4958865;29;20476;-73
2021/12/04 14:25:44;;;;;;;0.90;0.90;;;9.80;99.90;;;;;;4959163;28;20471;-73
2021/12/04 14:28:13;;;;;;;1.20;1.20;;;9.70;99.90;;;;;;4958336;29;20550;-72
2021/12/04 14:30:44;;;;;;;1.10;1.10;;;9.70;99.90;;;;;;4958700;29;20456;-72
2021/12/04 14:33:14;;;;;;;1.27;1.17;;;9.60;99.90;;;;;;4964256;29;20494;-72
2021/12/04 14:35:44;;;;;;;1.40;1.07;;;9.70;99.90;;;;;;4958471;29;20494;-72
2021/12/04 14:38:12;;;;;;;1.20;1.10;;;9.60;99.90;;;;;;4957699;29;20963;-72
2021/12/04 14:40:42;;;;;;;1.00;1.00;;;9.60;99.90;;;;;;4958566;29;20865;-72
2021/12/04 14:43:12;;;;;;;1.57;1.47;;;9.60;99.90;;;;;;4958090;29;20482;-72
2021/12/04 14:45:44;;;;;;;4.67;1.20;;;9.60;99.90;;;;;;4958394;29;20447;-72
2021/12/04 14:48:13;;;;;;;1.17;1.17;;;9.60;99.90;;;;;;4958186;29;20496;-73
2021/12/04 14:50:42;;;;;;;2.30;1.30;;;9.60;99.90;;;;;;4957996;29;20455;-73
2021/12/04 14:53:11;;;;;;;4.60;1.17;;;9.60;99.90;;;;;;4958907;29;20488;-72
2021/12/04 14:55:40;;;;;;;1.80;1.07;;;9.60;99.90;;;;;;4963009;29;20456;-72
2021/12/04 14:58:11;;;;;;;3.10;1.07;;;9.60;99.90;;;;;;4962966;29;20978;-73
2021/12/04 15:00:40;;;;;;;2.50;1.30;;;9.50;99.90;;;;;;4961205;28;20436;-73
2021/12/04 15:03:10;;;;;;;1.80;1.23;;;9.50;99.90;;;;;;4959900;29;20487;-73
2021/12/04 15:05:40;;;;;;;4.20;1.93;;;9.60;99.90;;;;;;4959316;29;20471;-73
2021/12/04 15:08:09;;;;;;;1.60;1.60;;;9.60;99.90;;;;;;4957659;29;20555;-73
2021/12/04 15:10:37;;;;;;;3.90;1.63;;;9.60;99.90;;;;;;4957310;29;20456;-73
2021/12/04 15:13:06;;;;;;;2.23;1.93;;;9.60;99.90;;;;;;4957121;29;20491;-73
2021/12/04 15:15:36;;;;;;;8.50;3.70;;;9.60;99.90;;;;;;4957557;29;20460;-73
2021/12/04 15:18:08;;;;;;;3.93;3.50;;;9.50;99.90;;;;;;4957289;29;20539;-73
2021/12/04 15:20:42;;;;;;;5.10;3.70;;;9.50;99.90;;;;;;4956982;29;20472;-73
2021/12/04 15:23:13;;;;;;;4.90;2.77;;;9.60;99.90;;;;;;4956825;28;20511;-73
2021/12/04 15:25:41;;;;;;;2.83;2.57;;;9.50;99.90;;;;;;4956317;28;20531;-73